EDTL

Lahr Airport

Germany
TAF EDTL 191700Z 1918/1924 20006KT CAVOK BECMG 1918/1920 VRB03KT
Issued Valid From Valid To
Sep-19 @ 17:00 UTC
(6 hours ago)
Sep-19 @ 18:00 UTC
(5 hours ago)
Sep-20 @ 00:00 UTC
(in an hour)
Sep-19 @ 18:00 to Sep-20 @ 00:00
TAF EDTL 191700Z 1918/1924 20006KT CAVOK
Wind Visibility Clouds Conditions
200° at 6 knots 10,000+ meters
  • No significant clouds
Becoming Sep-19 @ 18:00 to Sep-20 @ 00:00
BECMG 1918/1920 VRB03KT
Wind Visibility Clouds Conditions
Variable at 3 knots 10,000+ meters
  • No significant clouds
TAF EDTL 191700Z 1918/1924 20006KT CAVOK BECMG 1918/1920 VRB03KT
Issued Sep-19 @ 17:00 UTC
(6 hours ago)
Valid From Sep-19 @ 18:00 UTC
(5 hours ago)
Valid To Sep-20 @ 00:00 UTC
(in an hour)
Sep-19 @ 18:00 - Sep-20 @ 00:00
Wind Visibility
200° at 6 knots 10,000+ meters
Clouds
  • No significant clouds
Conditions
Becoming Sep-19 @ 18:00 - Sep-20 @ 00:00
Wind Visibility
Variable at 3 knots 10,000+ meters
Clouds
  • No significant clouds
Conditions